createdAt,value
2023-03-26T00:00:41.216Z,84.3757
2023-03-26T00:01:43.439Z,84.0472
2023-03-26T00:02:45.659Z,84.6574
2023-03-26T00:03:47.770Z,84.5633
2023-03-26T00:04:49.935Z,84.2931
2023-03-26T00:05:52.352Z,84.7881
2023-03-26T00:06:54.729Z,84.8532
2023-03-26T00:07:56.906Z,84.7739
2023-03-26T00:08:59.056Z,84.5996
2023-03-26T00:10:01.439Z,84.8337
2023-03-26T00:12:05.660Z,84.9358
2023-03-26T00:13:07.779Z,84.7967
2023-03-26T00:14:09.979Z,84.3490
2023-03-26T00:15:12.068Z,84.3363
2023-03-26T00:16:14.264Z,84.9090
2023-03-26T00:17:16.452Z,85.0879
2023-03-26T00:18:18.612Z,84.7228
2023-03-26T00:19:20.787Z,83.4874
2023-03-26T00:21:25.023Z,83.9507
2023-03-26T00:22:27.232Z,83.7168
2023-03-26T00:23:29.385Z,84.6221
2023-03-26T00:24:31.547Z,84.8613
2023-03-26T00:25:33.730Z,85.4629
2023-03-26T00:27:37.906Z,85.1107
2023-03-26T00:28:40.134Z,85.4300
2023-03-26T00:29:42.240Z,86.5882
2023-03-26T00:30:44.421Z,85.9622
2023-03-26T00:31:46.791Z,86.4436
2023-03-26T00:32:53.327Z,88.0492
2023-03-26T00:33:52.684Z,87.9718
2023-03-26T00:34:54.805Z,87.6420
2023-03-26T00:35:57.126Z,86.6544
2023-03-26T00:36:59.475Z,85.6216
2023-03-26T00:38:01.655Z,85.1254
2023-03-26T00:39:03.813Z,84.9201
2023-03-26T00:40:05.995Z,84.2992
2023-03-26T00:41:08.181Z,83.5883
2023-03-26T00:42:10.390Z,83.8177
2023-03-26T00:43:12.547Z,84.0383
2023-03-26T00:44:14.711Z,84.0065
2023-03-26T00:45:16.885Z,82.6830
2023-03-26T00:46:19.128Z,84.8387
2023-03-26T00:47:21.304Z,85.8923
2023-03-26T00:48:31.576Z,87.2164
2023-03-26T00:49:27.221Z,85.2969
2023-03-26T00:50:29.376Z,86.5747
2023-03-26T00:51:31.574Z,86.8901
2023-03-26T00:52:33.769Z,87.8820
2023-03-26T00:54:38.098Z,88.5055
2023-03-26T00:55:40.296Z,86.3275
2023-03-26T00:56:42.425Z,87.8492
2023-03-26T00:57:44.559Z,87.3510
2023-03-26T00:58:46.697Z,88.7086
2023-03-26T00:59:48.877Z,88.9966
2023-03-26T01:00:50.984Z,89.4807
2023-03-26T01:02:55.270Z,87.3544
2023-03-26T01:04:07.601Z,88.6068
2023-03-26T01:05:01.131Z,88.0440
2023-03-26T01:06:03.325Z,87.6120
2023-03-26T01:07:05.476Z,88.4094
2023-03-26T01:08:07.661Z,88.4266
2023-03-26T01:09:09.827Z,87.9761
2023-03-26T01:11:14.207Z,88.3673
2023-03-26T01:12:16.616Z,89.3410
2023-03-26T01:13:18.753Z,89.6321
2023-03-26T01:14:20.947Z,90.2381
2023-03-26T01:15:23.103Z,90.4513
2023-03-26T01:16:25.306Z,90.4913
2023-03-26T01:17:27.469Z,90.2405
2023-03-26T01:18:29.705Z,90.0747
2023-03-26T01:19:31.838Z,90.1706
2023-03-26T01:20:33.961Z,90.4680
2023-03-26T01:21:36.103Z,90.9349
2023-03-26T01:22:38.275Z,91.5802
2023-03-26T01:23:40.352Z,91.7447
2023-03-26T01:24:42.564Z,91.4492
2023-03-26T01:25:44.703Z,91.6163
2023-03-26T01:26:46.896Z,91.7712
2023-03-26T01:27:49.003Z,91.9044
2023-03-26T01:28:51.223Z,92.1393
2023-03-26T01:29:53.336Z,92.4338
2023-03-26T01:30:55.529Z,92.6747
2023-03-26T01:31:57.664Z,92.8398
2023-03-26T01:32:59.912Z,92.9391
2023-03-26T01:34:02.090Z,93.0673
2023-03-26T01:35:04.268Z,92.8808
2023-03-26T01:36:06.449Z,92.9910
2023-03-26T01:37:08.724Z,93.2614
2023-03-26T01:38:11.067Z,93.3889
2023-03-26T01:39:13.729Z,93.5908
2023-03-26T01:40:15.884Z,93.6459
2023-03-26T01:41:18.114Z,93.5569
2023-03-26T01:42:20.311Z,92.5338
2023-03-26T01:43:22.517Z,92.3375
2023-03-26T01:44:24.691Z,92.0262
2023-03-26T01:45:26.914Z,92.0257
2023-03-26T01:46:29.200Z,92.0762
2023-03-26T01:47:31.362Z,92.0491
2023-03-26T01:48:33.495Z,92.3209
2023-03-26T01:49:35.734Z,92.5647
2023-03-26T01:50:37.927Z,92.4427
2023-03-26T01:51:40.273Z,91.4276
2023-03-26T01:52:42.484Z,91.8836
2023-03-26T01:53:44.665Z,92.0158
2023-03-26T01:54:46.894Z,92.3193
2023-03-26T01:55:49.046Z,92.3766
2023-03-26T01:56:51.297Z,91.6085
2023-03-26T01:57:53.460Z,92.2900
2023-03-26T01:58:55.659Z,91.9986
2023-03-26T01:59:57.882Z,92.2154
2023-03-26T02:01:00.038Z,91.9704
2023-03-26T02:02:02.331Z,92.0312
2023-03-26T02:03:04.564Z,92.4714
2023-03-26T02:04:06.864Z,92.7083
2023-03-26T02:06:11.078Z,92.1870
2023-03-26T02:07:13.267Z,92.7029
2023-03-26T02:11:23.220Z,90.7940
2023-03-26T02:13:27.744Z,89.3917
2023-03-26T02:14:29.949Z,88.7569
2023-03-26T02:15:32.131Z,88.6080
2023-03-26T02:16:34.374Z,89.3205
2023-03-26T02:17:36.623Z,89.1264
2023-03-26T02:18:38.888Z,88.8316
2023-03-26T02:20:43.071Z,89.5194
2023-03-26T02:21:45.252Z,89.8442
2023-03-26T02:22:47.480Z,88.4750
2023-03-26T02:23:49.694Z,89.1173
2023-03-26T02:24:51.878Z,89.8446
2023-03-26T02:25:54.154Z,90.6997
2023-03-26T02:26:56.711Z,91.4252
2023-03-26T02:27:58.919Z,91.7118
2023-03-26T02:29:01.174Z,91.2338
2023-03-26T02:30:03.394Z,91.4277
2023-03-26T02:31:05.632Z,91.4185
2023-03-26T02:32:07.823Z,90.1313
2023-03-26T02:33:10.072Z,90.8416
2023-03-26T02:34:12.256Z,91.1753
2023-03-26T02:35:14.551Z,91.4241
2023-03-26T02:36:16.883Z,91.4006
2023-03-26T02:37:19.139Z,91.8535
2023-03-26T02:38:21.364Z,91.7275
2023-03-26T02:39:23.812Z,92.1454
2023-03-26T02:40:25.989Z,92.6437
2023-03-26T02:41:28.219Z,92.5370
2023-03-26T02:42:30.405Z,92.3541
2023-03-26T02:43:32.603Z,91.7317
2023-03-26T02:45:36.954Z,91.0420
2023-03-26T02:46:39.182Z,90.3483
2023-03-26T02:47:41.425Z,89.1684
2023-03-26T02:48:43.623Z,88.9711
2023-03-26T02:49:45.896Z,88.5515
2023-03-26T02:50:48.052Z,87.6953
2023-03-26T02:51:50.275Z,87.7725
2023-03-26T02:52:52.433Z,87.2501
2023-03-26T02:53:54.667Z,87.0872
2023-03-26T02:54:56.864Z,87.3557
2023-03-26T02:57:01.176Z,87.4368
2023-03-26T02:58:03.390Z,87.4733
2023-03-26T02:59:05.630Z,87.0572
2023-03-26T03:00:07.867Z,87.8571
2023-03-26T03:01:10.090Z,86.9279
2023-03-26T03:02:12.308Z,87.2310
2023-03-26T03:03:14.460Z,87.7971
2023-03-26T03:04:16.731Z,88.1108
2023-03-26T03:05:18.965Z,88.1563
2023-03-26T03:06:21.133Z,87.4476
2023-03-26T03:07:23.396Z,87.1654
2023-03-26T03:08:25.623Z,88.5580
2023-03-26T03:09:27.791Z,88.4859
2023-03-26T03:10:29.940Z,88.7350
2023-03-26T03:11:32.187Z,88.7238
2023-03-26T03:12:34.389Z,88.2966
2023-03-26T03:13:36.568Z,89.3471
2023-03-26T03:14:38.745Z,90.0962
2023-03-26T03:15:40.930Z,90.0155
2023-03-26T03:16:43.158Z,90.3165
2023-03-26T03:17:45.423Z,90.4937
2023-03-26T03:18:47.595Z,91.2327
2023-03-26T03:19:49.750Z,91.5401
2023-03-26T03:20:51.986Z,91.3839
2023-03-26T03:21:54.163Z,91.3212
2023-03-26T03:22:56.466Z,91.4981
2023-03-26T03:24:00.071Z,92.0056
2023-03-26T03:25:02.712Z,93.0375
2023-03-26T03:26:04.941Z,92.5804
2023-03-26T03:27:07.127Z,92.9616
2023-03-26T03:28:09.274Z,92.4342
2023-03-26T03:29:11.503Z,92.7738
2023-03-26T03:30:13.735Z,92.8517
2023-03-26T03:31:15.936Z,92.7655
2023-03-26T03:32:18.132Z,92.2383
2023-03-26T03:33:20.331Z,91.9795
2023-03-26T03:34:22.517Z,92.7463
2023-03-26T03:35:24.805Z,92.5951
2023-03-26T03:36:27.051Z,91.5053
2023-03-26T03:37:29.221Z,92.3562
2023-03-26T03:38:31.422Z,92.3645
2023-03-26T03:39:33.675Z,92.0974
2023-03-26T03:40:35.856Z,91.1158
2023-03-26T03:41:38.069Z,91.9449
2023-03-26T03:42:40.310Z,93.1219
2023-03-26T03:44:44.702Z,94.0102
2023-03-26T03:45:46.956Z,94.6261
2023-03-26T03:46:49.200Z,94.9921
2023-03-26T03:47:51.406Z,95.1665
2023-03-26T03:48:53.580Z,95.4163
2023-03-26T03:49:55.855Z,95.3815
2023-03-26T03:50:58.112Z,95.1548
2023-03-26T03:52:00.370Z,95.5059
2023-03-26T03:53:02.577Z,95.4584
2023-03-26T03:54:04.797Z,95.1593
2023-03-26T03:55:06.994Z,94.9644
2023-03-26T03:56:09.155Z,94.6115
2023-03-26T03:57:11.502Z,94.7486
2023-03-26T03:58:13.666Z,94.4786
2023-03-26T03:59:15.863Z,94.3719
2023-03-26T04:00:18.179Z,93.3322
2023-03-26T04:01:20.350Z,92.3630
2023-03-26T04:02:22.618Z,92.9937
2023-03-26T04:03:33.489Z,92.3374
2023-03-26T04:04:28.516Z,91.9802
2023-03-26T04:05:30.702Z,92.3719
2023-03-26T04:06:32.893Z,92.5262
2023-03-26T04:07:35.063Z,92.6903
2023-03-26T04:08:37.275Z,92.4987
2023-03-26T04:09:39.503Z,91.8480
2023-03-26T04:13:47.857Z,91.9209
2023-03-26T04:14:50.076Z,91.2264
2023-03-26T04:15:52.425Z,92.4557
2023-03-26T04:17:56.878Z,92.5890
2023-03-26T04:18:59.114Z,91.9109
2023-03-26T04:20:01.293Z,92.5501
2023-03-26T04:21:03.500Z,91.9390
2023-03-26T04:22:05.699Z,93.1795
2023-03-26T04:23:07.916Z,92.7486
2023-03-26T04:24:10.122Z,93.3640
2023-03-26T04:25:12.260Z,93.8236
2023-03-26T04:26:14.515Z,93.3414
2023-03-26T04:27:16.653Z,93.8327
2023-03-26T04:28:18.887Z,92.7620
2023-03-26T04:29:21.082Z,92.5271
2023-03-26T04:30:23.285Z,93.3574
2023-03-26T04:31:25.446Z,93.8564
2023-03-26T04:32:27.689Z,92.4726
2023-03-26T04:33:29.837Z,91.4038
2023-03-26T04:35:34.147Z,91.2925
2023-03-26T04:36:36.281Z,91.7743
2023-03-26T04:37:38.485Z,91.5542
2023-03-26T04:38:40.700Z,92.0400
2023-03-26T04:39:42.863Z,92.1553
2023-03-26T04:40:45.101Z,91.7498
2023-03-26T04:41:47.358Z,91.2733
2023-03-26T04:42:49.606Z,90.0294
2023-03-26T04:44:53.842Z,92.2558
2023-03-26T04:45:56.125Z,92.0353
2023-03-26T04:46:58.635Z,91.0607
2023-03-26T04:48:00.881Z,91.3101
2023-03-26T04:49:03.184Z,90.6921
2023-03-26T04:50:05.404Z,90.4213
2023-03-26T04:51:07.658Z,91.2272
2023-03-26T04:52:09.865Z,90.7577
2023-03-26T04:53:12.033Z,90.6675
2023-03-26T04:54:14.264Z,91.0467
2023-03-26T04:56:18.509Z,92.4553
2023-03-26T04:57:20.686Z,91.5526
2023-03-26T04:58:22.873Z,90.8006
2023-03-26T04:59:25.081Z,90.6758
2023-03-26T05:00:27.269Z,91.1069
2023-03-26T05:01:29.533Z,91.2266
2023-03-26T05:02:31.830Z,90.8509
2023-03-26T05:03:34.050Z,90.6496
2023-03-26T05:04:36.274Z,91.7515
2023-03-26T05:05:38.492Z,91.0528
2023-03-26T05:06:40.675Z,90.5540
2023-03-26T05:07:42.906Z,91.3878
2023-03-26T05:08:45.079Z,90.5030
2023-03-26T05:09:47.308Z,91.4137
2023-03-26T05:10:49.460Z,92.1877
2023-03-26T05:12:53.686Z,91.8977
2023-03-26T05:13:55.892Z,91.6744
2023-03-26T05:14:58.099Z,92.2102
2023-03-26T05:16:00.282Z,92.8285
2023-03-26T05:17:02.508Z,92.2668
2023-03-26T05:18:04.722Z,91.8993
2023-03-26T05:21:11.074Z,91.7922
2023-03-26T05:22:13.273Z,91.5953
2023-03-26T05:23:15.518Z,92.2283
2023-03-26T05:24:17.631Z,91.7859
2023-03-26T05:25:19.900Z,91.0831
2023-03-26T05:26:22.148Z,90.6517
2023-03-26T05:27:24.327Z,89.8912
2023-03-26T05:28:26.546Z,90.8780
2023-03-26T05:29:28.799Z,90.9097
2023-03-26T05:30:30.994Z,90.6709
2023-03-26T05:31:33.182Z,92.1169
2023-03-26T05:32:35.392Z,91.7116
2023-03-26T05:33:37.751Z,91.5121
2023-03-26T05:34:40.016Z,92.4886
2023-03-26T05:35:42.281Z,92.7798
2023-03-26T05:36:44.442Z,91.4869
2023-03-26T05:37:46.653Z,90.1019
2023-03-26T05:38:48.819Z,90.3459
2023-03-26T05:39:51.056Z,90.5331
2023-03-26T05:40:53.595Z,91.9162
2023-03-26T05:41:55.994Z,92.4544
2023-03-26T05:44:00.224Z,92.8345
2023-03-26T05:45:02.445Z,93.4333
2023-03-26T05:46:04.647Z,93.7022
2023-03-26T05:47:06.872Z,93.7526
2023-03-26T05:48:09.051Z,94.4251
2023-03-26T05:49:11.266Z,95.0003
2023-03-26T05:50:13.431Z,95.1982
2023-03-26T05:51:15.701Z,95.5789
2023-03-26T05:52:17.939Z,95.8151
2023-03-26T05:54:22.261Z,96.3334
2023-03-26T05:55:24.508Z,96.5282
2023-03-26T05:57:28.892Z,96.6042
2023-03-26T05:58:31.139Z,96.8506
2023-03-26T05:59:33.349Z,96.8066
2023-03-26T06:00:35.509Z,96.9992
2023-03-26T06:01:37.711Z,97.1826
2023-03-26T06:02:39.911Z,97.3083
2023-03-26T06:03:42.168Z,97.3795
2023-03-26T06:04:44.393Z,97.4514
2023-03-26T06:05:46.623Z,97.6250
2023-03-26T06:06:48.787Z,97.7944
2023-03-26T06:07:51.033Z,97.9474
2023-03-26T06:09:01.395Z,97.9949
2023-03-26T06:09:56.867Z,98.0578
2023-03-26T06:10:59.043Z,98.0957
2023-03-26T06:12:01.220Z,98.1344
2023-03-26T06:13:03.490Z,98.1462
2023-03-26T06:14:05.709Z,98.1707
2023-03-26T06:15:07.860Z,98.1927
2023-03-26T06:16:10.134Z,98.2691
2023-03-26T06:17:13.746Z,98.1846
2023-03-26T06:18:15.984Z,98.1200
2023-03-26T06:19:18.122Z,97.8237
2023-03-26T06:20:20.341Z,97.5935
2023-03-26T06:21:22.611Z,97.4461
2023-03-26T06:22:24.839Z,97.1080
2023-03-26T06:23:27.019Z,97.3589
2023-03-26T06:24:29.161Z,97.4292
2023-03-26T06:25:31.355Z,97.4883
2023-03-26T06:26:33.563Z,97.5238
2023-03-26T06:27:35.763Z,97.3525
2023-03-26T06:28:37.935Z,97.3384
2023-03-26T06:29:40.150Z,97.4956
2023-03-26T06:30:42.339Z,97.4976
2023-03-26T06:31:44.563Z,97.3083
2023-03-26T06:32:46.792Z,97.2135
2023-03-26T06:33:48.999Z,97.3366
2023-03-26T06:34:51.234Z,97.4830
2023-03-26T06:35:53.432Z,97.6339
2023-03-26T06:36:55.625Z,97.7445
2023-03-26T06:37:57.803Z,97.8630
2023-03-26T06:40:02.012Z,97.9307
2023-03-26T06:41:04.238Z,97.9545
2023-03-26T06:42:06.452Z,98.0247
2023-03-26T06:43:10.941Z,98.0870
2023-03-26T06:44:09.093Z,98.1434
2023-03-26T06:45:11.312Z,98.1800
2023-03-26T06:46:13.552Z,98.2203
2023-03-26T06:47:15.787Z,98.1275
2023-03-26T06:48:18.019Z,98.1695
2023-03-26T06:49:20.180Z,98.2321
2023-03-26T06:50:22.452Z,98.3101
2023-03-26T06:51:24.642Z,98.3797
2023-03-26T06:52:26.873Z,98.3323
2023-03-26T06:53:29.024Z,98.3428
2023-03-26T06:54:31.288Z,98.2515
2023-03-26T06:55:33.557Z,98.2659
2023-03-26T06:56:35.729Z,98.2721
2023-03-26T06:57:37.964Z,98.3010
2023-03-26T06:58:40.233Z,98.3117
2023-03-26T06:59:42.412Z,98.3761
2023-03-26T07:00:44.731Z,98.4054
2023-03-26T07:01:46.924Z,98.5154
2023-03-26T07:02:49.128Z,98.5309
2023-03-26T07:03:51.333Z,98.3962
2023-03-26T07:04:53.522Z,98.4814
2023-03-26T07:05:55.745Z,98.5685
2023-03-26T07:06:57.970Z,98.5908
2023-03-26T07:08:00.160Z,98.4540
2023-03-26T07:10:04.417Z,98.1171
2023-03-26T07:11:06.681Z,98.0369
2023-03-26T07:12:08.863Z,97.8162
2023-03-26T07:13:11.157Z,97.1447
2023-03-26T07:14:13.383Z,96.7763
2023-03-26T07:15:15.577Z,96.0325
2023-03-26T07:16:17.789Z,94.5233
2023-03-26T07:17:19.962Z,94.2693
2023-03-26T07:18:22.199Z,94.1802
2023-03-26T07:19:24.337Z,93.2563
2023-03-26T07:21:28.608Z,93.7421
2023-03-26T07:22:30.809Z,93.9630
2023-03-26T07:23:33.169Z,94.1242
2023-03-26T07:24:35.373Z,93.2600
2023-03-26T07:25:37.606Z,93.5143
2023-03-26T07:26:39.792Z,93.1840
2023-03-26T07:27:42.021Z,92.7557
2023-03-26T07:28:44.230Z,92.5879
2023-03-26T07:29:47.949Z,92.8894
2023-03-26T07:30:50.088Z,93.7702
2023-03-26T07:31:52.530Z,94.0158
2023-03-26T07:32:54.775Z,94.2031
2023-03-26T07:33:56.957Z,94.2251
2023-03-26T07:34:59.190Z,94.3936
2023-03-26T07:36:01.370Z,94.6236
2023-03-26T07:37:03.637Z,94.5259
2023-03-26T07:38:05.853Z,94.3864
2023-03-26T07:39:08.012Z,94.4756
2023-03-26T07:40:10.261Z,94.2941
2023-03-26T07:42:14.513Z,94.4460
2023-03-26T07:43:16.668Z,94.2499
2023-03-26T07:44:18.877Z,94.4178
2023-03-26T07:45:21.082Z,95.1698
2023-03-26T07:46:23.307Z,94.8932
2023-03-26T07:48:27.654Z,94.0591
2023-03-26T07:49:29.868Z,94.2864
2023-03-26T07:50:32.077Z,94.5285
2023-03-26T07:51:34.272Z,94.3493
2023-03-26T07:52:36.499Z,94.1108
2023-03-26T07:53:38.721Z,94.2169
2023-03-26T07:54:41.026Z,93.9268
2023-03-26T07:55:43.223Z,93.8233
2023-03-26T07:56:45.558Z,93.7550
2023-03-26T07:57:47.771Z,93.7781
2023-03-26T07:58:49.912Z,93.5448
2023-03-26T08:02:58.330Z,94.7682
2023-03-26T08:05:02.756Z,93.5497
2023-03-26T08:06:05.176Z,93.7425
2023-03-26T08:07:07.343Z,93.5126
2023-03-26T08:08:09.558Z,93.4949
2023-03-26T08:09:11.742Z,94.4539
2023-03-26T08:10:13.932Z,94.7815
2023-03-26T08:12:18.130Z,94.8749
2023-03-26T08:13:20.370Z,95.1446
2023-03-26T08:14:22.572Z,95.2393
2023-03-26T08:15:24.750Z,94.9526
2023-03-26T08:17:30.647Z,94.9137
2023-03-26T08:18:29.226Z,94.8624
2023-03-26T08:19:31.453Z,94.7144
2023-03-26T08:20:33.607Z,94.4763
2023-03-26T08:21:35.837Z,94.6128
2023-03-26T08:22:37.959Z,94.6994
2023-03-26T08:23:50.371Z,94.7438
2023-03-26T08:24:43.833Z,94.3551
2023-03-26T08:25:46.061Z,94.8489
2023-03-26T08:26:48.220Z,95.2365
2023-03-26T08:27:50.448Z,95.0918
2023-03-26T08:28:52.581Z,95.0190
2023-03-26T08:29:54.761Z,95.2858
2023-03-26T08:30:57.317Z,95.7162
2023-03-26T08:32:00.024Z,95.8473
2023-03-26T08:34:04.215Z,95.9083
2023-03-26T08:35:06.421Z,95.9955
2023-03-26T08:37:10.696Z,96.5160
2023-03-26T08:38:12.889Z,96.2114
2023-03-26T08:39:15.009Z,96.0696
2023-03-26T08:41:19.229Z,95.9455
2023-03-26T08:43:23.505Z,95.5900
2023-03-26T08:44:25.703Z,95.3170
2023-03-26T08:45:27.976Z,95.3319
2023-03-26T08:46:30.159Z,95.0699
2023-03-26T08:47:32.329Z,94.8005
2023-03-26T08:48:34.625Z,94.5923
2023-03-26T08:49:36.823Z,94.7983
2023-03-26T08:50:38.977Z,94.3947
2023-03-26T08:51:41.103Z,94.2157
2023-03-26T08:52:43.332Z,94.5023
2023-03-26T08:53:45.467Z,94.3947
2023-03-26T08:54:47.695Z,93.7984
2023-03-26T08:55:49.832Z,93.6864
2023-03-26T08:57:54.074Z,93.9652
2023-03-26T08:58:56.286Z,94.2152
2023-03-26T08:59:59.278Z,94.3687
2023-03-26T09:00:58.489Z,94.4063
2023-03-26T09:02:00.735Z,94.5397
2023-03-26T09:03:02.900Z,94.5469
2023-03-26T09:04:05.108Z,94.4747
2023-03-26T09:05:07.405Z,94.3733
2023-03-26T09:06:09.515Z,95.1289
2023-03-26T09:07:11.738Z,95.2416
2023-03-26T09:09:19.153Z,95.4445
2023-03-26T09:10:17.419Z,95.4996
2023-03-26T09:11:19.627Z,95.4257
2023-03-26T09:12:22.842Z,95.6753
2023-03-26T09:13:23.208Z,96.1099
2023-03-26T09:14:25.373Z,96.0651
2023-03-26T09:15:27.534Z,95.7912
2023-03-26T09:16:29.762Z,95.5964
2023-03-26T09:18:33.959Z,94.3646
2023-03-26T09:19:36.142Z,94.6292
2023-03-26T09:20:38.422Z,95.0893
2023-03-26T09:22:42.683Z,94.9643
2023-03-26T09:23:44.865Z,95.1503
2023-03-26T09:25:49.065Z,94.4670
2023-03-26T09:26:51.277Z,93.6310
2023-03-26T09:27:53.441Z,93.4880
2023-03-26T09:28:55.613Z,93.3894
2023-03-26T09:29:57.772Z,92.4661
2023-03-26T09:30:59.976Z,91.9164
2023-03-26T09:32:02.133Z,91.8653
2023-03-26T09:33:04.324Z,91.8716
2023-03-26T09:34:06.504Z,92.6456
2023-03-26T09:35:08.648Z,92.3964
2023-03-26T09:36:11.225Z,92.4358
2023-03-26T09:37:13.442Z,92.2676
2023-03-26T09:38:15.632Z,92.5187
2023-03-26T09:39:17.802Z,92.4955
2023-03-26T09:40:19.990Z,91.7425
2023-03-26T09:41:22.200Z,91.5978
2023-03-26T09:42:24.394Z,91.5125
2023-03-26T09:44:28.670Z,91.2758
2023-03-26T09:45:30.948Z,91.3978
2023-03-26T09:47:35.182Z,91.4200
2023-03-26T09:48:37.413Z,91.7944
2023-03-26T09:49:39.557Z,91.2725
2023-03-26T09:50:41.778Z,90.7842
2023-03-26T09:51:44.038Z,90.8447
2023-03-26T09:52:46.196Z,90.4260
2023-03-26T09:53:48.355Z,90.4009
2023-03-26T09:54:50.585Z,90.8674
2023-03-26T09:56:54.876Z,89.1714
2023-03-26T09:57:56.994Z,88.4180
2023-03-26T09:58:59.193Z,87.7045
2023-03-26T10:00:01.367Z,87.5700
2023-03-26T10:01:03.636Z,87.9519
2023-03-26T10:02:05.894Z,88.2267
2023-03-26T10:03:08.148Z,87.6483
2023-03-26T10:04:10.373Z,87.7273
2023-03-26T10:05:12.597Z,87.9404
2023-03-26T10:06:14.856Z,88.1121
2023-03-26T10:07:17.020Z,87.0039
2023-03-26T10:08:19.287Z,87.4207
2023-03-26T10:09:21.439Z,88.1013
2023-03-26T10:10:23.654Z,87.8363
2023-03-26T10:11:25.814Z,87.2940
2023-03-26T10:12:28.206Z,87.2762
2023-03-26T10:13:30.497Z,87.5387
2023-03-26T10:14:32.658Z,87.4860
2023-03-26T10:15:34.961Z,87.0003
2023-03-26T10:16:37.301Z,86.7234
2023-03-26T10:17:39.569Z,85.9125
2023-03-26T10:18:41.713Z,86.7053
2023-03-26T10:19:44.236Z,86.5314
2023-03-26T10:20:46.527Z,85.1864
2023-03-26T10:21:48.718Z,85.1502
2023-03-26T10:22:50.977Z,85.2688
2023-03-26T10:23:53.120Z,85.0735
2023-03-26T10:24:55.363Z,85.0935
2023-03-26T10:25:57.673Z,85.5191
2023-03-26T10:27:09.113Z,85.3118
2023-03-26T10:28:03.589Z,85.2341
2023-03-26T10:29:05.824Z,85.1211
2023-03-26T10:30:08.014Z,85.1602
2023-03-26T10:31:10.179Z,85.2087
2023-03-26T10:32:12.452Z,84.7726
2023-03-26T10:33:14.891Z,84.9268
2023-03-26T10:34:28.659Z,84.9397
2023-03-26T10:35:20.833Z,84.6157
2023-03-26T10:37:25.153Z,83.9740
2023-03-26T10:38:27.385Z,84.6407
2023-03-26T10:39:37.216Z,84.3900
2023-03-26T10:40:33.265Z,84.3008
2023-03-26T10:41:35.498Z,84.9589
2023-03-26T10:42:37.641Z,84.7455
2023-03-26T10:43:39.829Z,85.0042
2023-03-26T10:44:42.048Z,85.6263
2023-03-26T10:45:44.340Z,84.7723
2023-03-26T10:46:46.715Z,84.6502
2023-03-26T10:47:49.129Z,85.5302
2023-03-26T10:49:53.310Z,84.9049
2023-03-26T10:50:55.785Z,83.5787
2023-03-26T10:51:58.872Z,82.9349
2023-03-26T10:53:01.083Z,83.1207
2023-03-26T10:54:03.500Z,82.7091
2023-03-26T10:55:05.695Z,83.9355
2023-03-26T10:56:07.948Z,84.0615
2023-03-26T10:57:10.317Z,83.7417
2023-03-26T10:58:12.494Z,83.8488
2023-03-26T10:59:15.057Z,83.1074
2023-03-26T11:00:17.516Z,81.9853
2023-03-26T11:01:19.790Z,81.7771
2023-03-26T11:02:29.299Z,82.1190
2023-03-26T11:03:25.937Z,82.2851
2023-03-26T11:04:28.082Z,82.0389
2023-03-26T11:05:30.366Z,82.2692
2023-03-26T11:06:32.629Z,82.4898
2023-03-26T11:07:34.821Z,82.0460
2023-03-26T11:08:36.950Z,81.4144
2023-03-26T11:09:39.207Z,80.3564
2023-03-26T11:10:41.411Z,79.9260
2023-03-26T11:11:43.932Z,80.7163
2023-03-26T11:12:46.180Z,81.1541
2023-03-26T11:13:48.361Z,81.5961
2023-03-26T11:14:50.628Z,81.4276
2023-03-26T11:15:53.046Z,80.9638
2023-03-26T11:16:55.387Z,79.9456
2023-03-26T11:17:57.614Z,79.2216
2023-03-26T11:18:59.754Z,78.4706
2023-03-26T11:20:01.953Z,78.4466
2023-03-26T11:21:19.106Z,78.1188
2023-03-26T11:22:07.964Z,79.3981
2023-03-26T11:23:10.100Z,76.9448
2023-03-26T11:24:13.264Z,77.0066
2023-03-26T11:25:15.418Z,77.2346
2023-03-26T11:26:17.690Z,77.9077
2023-03-26T11:27:21.323Z,77.0244
2023-03-26T11:28:21.140Z,77.0005
2023-03-26T11:29:32.297Z,77.4351
2023-03-26T11:30:26.917Z,77.4255
2023-03-26T11:31:29.243Z,77.7341
2023-03-26T11:32:31.513Z,77.7783
2023-03-26T11:33:33.619Z,77.2218
2023-03-26T11:34:35.822Z,77.4137
2023-03-26T11:35:40.625Z,77.7864
2023-03-26T11:36:39.150Z,75.2039
2023-03-26T11:37:41.324Z,75.9943
2023-03-26T11:39:45.581Z,76.7717
2023-03-26T11:40:47.680Z,76.6044
2023-03-26T11:41:49.880Z,77.0468
2023-03-26T11:42:52.045Z,75.9432
2023-03-26T11:43:54.368Z,75.5507
2023-03-26T11:44:56.794Z,75.8251
2023-03-26T11:45:59.131Z,75.1343
2023-03-26T11:47:01.370Z,75.5043
2023-03-26T11:48:03.571Z,75.3025
2023-03-26T11:49:05.719Z,75.8438
2023-03-26T11:52:12.000Z,74.5999
2023-03-26T11:53:14.183Z,74.9640
2023-03-26T11:54:16.405Z,75.0428
2023-03-26T11:55:18.608Z,74.6759
2023-03-26T11:56:20.837Z,74.2842
2023-03-26T11:57:23.067Z,74.2252
2023-03-26T11:58:25.261Z,72.2732
2023-03-26T11:59:27.421Z,73.1176
2023-03-26T12:01:31.792Z,72.8644
2023-03-26T12:02:34.156Z,73.0097
2023-03-26T12:04:38.524Z,71.2958
2023-03-26T12:05:40.692Z,71.3209
2023-03-26T12:06:42.794Z,71.5085
2023-03-26T12:07:44.913Z,71.4072
2023-03-26T12:08:47.093Z,71.5978
2023-03-26T12:09:49.246Z,72.6518
2023-03-26T12:10:51.427Z,72.4552
2023-03-26T12:11:53.635Z,72.9548
2023-03-26T12:12:55.822Z,73.4626
2023-03-26T12:13:58.046Z,71.3918
2023-03-26T12:15:00.204Z,71.6821
2023-03-26T12:16:02.357Z,71.8099
2023-03-26T12:17:04.623Z,72.0857
2023-03-26T12:18:27.757Z,71.0716
2023-03-26T12:19:07.848Z,69.5172
2023-03-26T12:20:09.962Z,69.4677
2023-03-26T12:21:12.248Z,70.0680
2023-03-26T12:22:14.409Z,70.1414
2023-03-26T12:23:16.707Z,69.6763
2023-03-26T12:24:18.966Z,70.3094
2023-03-26T12:25:21.181Z,71.2077
2023-03-26T12:26:23.357Z,71.1668
2023-03-26T12:27:25.511Z,71.3254
2023-03-26T12:28:27.660Z,71.4612
2023-03-26T12:29:29.807Z,71.7775
2023-03-26T12:30:32.068Z,72.4325
2023-03-26T12:31:34.270Z,72.5832
2023-03-26T12:32:45.868Z,75.9169
2023-03-26T12:33:40.220Z,78.9638
2023-03-26T12:34:42.434Z,81.8892
2023-03-26T12:35:44.695Z,83.2982
2023-03-26T12:36:46.950Z,83.3187
2023-03-26T12:39:16.731Z,81.1597
2023-03-26T12:40:09.271Z,80.3663
2023-03-26T12:40:58.524Z,79.1017
2023-03-26T12:47:56.670Z,75.3041
2023-03-26T12:47:58.583Z,74.7779
2023-03-26T12:48:16.177Z,75.2110
2023-03-26T12:49:18.934Z,74.5526
2023-03-26T12:50:34.436Z,73.5448
2023-03-26T12:51:24.900Z,70.9221
2023-03-26T12:52:27.053Z,68.2253
2023-03-26T12:54:31.285Z,66.0223
2023-03-26T12:55:33.443Z,66.0258
2023-03-26T12:57:37.991Z,66.0755
2023-03-26T12:59:42.148Z,63.8437
2023-03-26T13:00:44.259Z,64.6526
2023-03-26T13:01:46.347Z,64.3766
2023-03-26T13:02:48.611Z,64.0180
2023-03-26T13:03:52.824Z,64.5372
2023-03-26T13:05:05.050Z,68.3651
2023-03-26T13:05:58.580Z,67.6558
2023-03-26T13:07:02.268Z,67.5215
2023-03-26T13:08:04.722Z,69.2168
2023-03-26T13:09:06.922Z,71.3200
2023-03-26T13:10:09.216Z,71.0357
2023-03-26T13:11:11.464Z,71.5924
2023-03-26T13:12:13.758Z,72.5217
2023-03-26T13:13:15.881Z,72.1757
2023-03-26T13:14:18.113Z,72.5418
2023-03-26T13:15:20.326Z,71.9182
2023-03-26T13:16:22.505Z,71.3339
2023-03-26T13:17:24.893Z,72.0848
2023-03-26T13:18:27.038Z,72.3267
2023-03-26T13:19:29.221Z,72.8005
2023-03-26T13:20:31.430Z,73.0945
2023-03-26T13:21:33.630Z,70.8990
2023-03-26T13:22:35.807Z,72.7861
2023-03-26T13:23:37.937Z,71.2966
2023-03-26T13:24:40.233Z,66.9190
2023-03-26T13:25:42.333Z,65.4378
2023-03-26T13:26:44.484Z,63.7939
2023-03-26T13:27:46.586Z,66.6512
2023-03-26T13:30:52.918Z,69.5896
2023-03-26T13:31:55.352Z,71.4167
2023-03-26T13:32:57.573Z,69.7048
2023-03-26T13:33:59.765Z,70.1266
2023-03-26T13:35:01.966Z,71.6857
2023-03-26T13:36:21.768Z,72.5646
2023-03-26T13:37:07.746Z,72.1127
2023-03-26T13:39:12.002Z,69.0788
2023-03-26T13:40:14.193Z,67.8835
2023-03-26T13:42:18.516Z,70.1453
2023-03-26T13:43:20.626Z,67.0869
2023-03-26T13:44:22.806Z,68.0220
2023-03-26T13:45:24.945Z,68.5024